Chillicothe, OH

11:00 AM EDT on August 22, 2014 (GMT -0400)
KOHCHILL5 | Change Station
CLOSE
Current Station
Personal Weather Station
Location: Chillicothe, OH
Elevation: 776 ft
Nearby Weather Stations

Elev 776 ft 39.38 °N, 82.85 °W | Updated 8 seconds ago

Clear
Clear
71.6 °F
Feels Like 74 °F
N
0.2
Wind Variable Wind from SW
Gusts 0.2 mph

Today
High -- | Low -- °F
--% Chance of Precip.
Yesterday
High -- | Low -- °F
Precip. -- in
6:51 AM 8:17 PM
Waning Crescent, 8% visible
Pressure 30.02 in
Visibility 10.0 miles
Clouds Clear
Heat Index 74 °F
Dew Point 63 °F
Humidity 74%
Rainfall 0.18 in
Snow Depth Not available.
UV 6 out of 12
Pollen 6.50 out of 12
Air Quality Not available.
Flu Activity Not available.
METAR KLCK 221455Z AUTO 19004KT 10SM CLR 23/19 A3002 RMK AO2 T02260190

More Conditions Fewer Conditions

Pressure 30.02 in
Visibility 10.0 miles
Clouds Clear
Heat Index 74 °F
Dew Point 63 °F
Humidity 74%
Rainfall 0.18 in
Snow Depth Not available.
UV 6 out of 12
Pollen 6.50 out of 12
Air Quality Not available.
Flu Activity Not available.
METAR KLCK 221455Z AUTO 19004KT 10SM CLR 23/19 A3002 RMK AO2 T02260190

More Conditions Fewer Conditions

10-Day Weather Forecast

Almanac

Astronomy

Aug. 22, 2014 Rise Set
Actual Time 6:51 AM EDT 8:17 PM EDT
Civil Twilight 6:23 AM EDT 8:45 PM EDT
Nautical Twilight 5:49 AM EDT 9:19 PM EDT
Astronomical Twilight 5:13 AM EDT 9:54 PM EDT
Moon 4:13 AM EDT 6:25 PM EDT
Length of Visible Light 14h 22m
Length of Day
13h 26m
Tomorrow will be 2m 22s shorter.
Waning Crescent, 8% of the Moon is Illuminated
Today
Waning Crescent
Aug 25
New
Sep 2
First Quarter
Sep 8
Full
Sep 15
Last Quarter

Today's Extremes

State Highs State Lows

Community

WunderPhotos

Upload Photos

1,746,185 photos uploaded!

WunderBlogs® & News

Nearby

Snow Depth

Station Depth Elevation
No new snow has been reported.

Earthquake Activity

City Distance Mag. Time & Date
No recent earthquake activity has been reported nearby.
Minimum magnitude displayed is 2.5.

Coastal Water Temperatures

Place Temperature
No Stations Reporting

Nearby Weather Stations